Time;durP1;ratioP1;P1;durP2;ratioP2;P2;SDS_P1;SDS_P2;PMS_P1;PMS_P2;Temp;Humidity;BMP_temperature;BMP_pressure;BME280_temperature;BME280_humidity;BME280_pressure;Samples;Min_cycle;Max_cycle;Signal;HPM_P1;HPM_P2
2021/04/24 00:00:29;;;;;;;7.47;2.57;;;;;;;2.93;70.34;102013.73;115762;1209;63718;-78
2021/04/24 00:02:55;;;;;;;5.00;2.47;;;;;;;2.94;70.82;102012.82;115827;1209;62270;-77
2021/04/24 00:05:36;;;;;;;5.60;2.20;;;;;;;2.94;70.98;102004.13;115796;1209;62749;-78
2021/04/24 00:08:05;;;;;;;6.63;2.37;;;;;;;2.93;71.80;102010.28;115805;1209;62170;-77
2021/04/24 00:10:34;;;;;;;4.37;1.30;;;;;;;2.90;71.99;102013.94;115812;1209;62430;-77
2021/04/24 00:13:02;;;;;;;9.70;3.00;;;;;;;2.88;72.17;102010.56;115770;1209;63119;-77
2021/04/24 00:15:29;;;;;;;5.17;1.80;;;;;;;2.85;73.65;102019.46;115817;1209;62344;-77
2021/04/24 00:18:01;;;;;;;12.30;3.85;;;;;;;2.83;72.54;102010.84;115837;1209;62414;-77
2021/04/24 00:20:28;;;;;;;7.65;2.65;;;;;;;2.83;73.34;102010.84;115732;1209;62398;-78
2021/04/24 00:22:55;;;;;;;9.63;2.73;;;;;;;2.82;73.45;102018.80;115867;1209;62303;-78
2021/04/24 00:25:22;;;;;;;9.63;2.73;;;;;;;2.81;73.62;102012.72;115851;1209;62645;-77
2021/04/24 00:27:49;;;;;;;4.00;2.00;;;;;;;2.79;74.04;102009.34;115806;1209;62299;-77
2021/04/24 00:30:17;;;;;;;12.80;3.67;;;;;;;2.76;73.13;102012.16;115795;1209;62748;-78
2021/04/24 00:32:44;;;;;;;9.50;2.90;;;;;;;2.74;72.76;102010.55;115855;1209;62408;-77
2021/04/24 00:35:13;;;;;;;7.00;2.60;;;;;;;2.70;73.04;102015.14;115755;1209;62583;-77
2021/04/24 00:37:40;;;;;;;10.30;3.00;;;;;;;2.65;73.38;102014.55;115784;1209;64821;-77
2021/04/24 00:40:08;;;;;;;5.43;1.93;;;;;;;2.61;73.94;102005.19;115745;1209;62403;-78
2021/04/24 00:42:36;;;;;;;11.70;3.40;;;;;;;2.58;73.68;102010.63;115805;1209;62903;-76
2021/04/24 00:45:06;;;;;;;7.70;3.05;;;;;;;2.57;73.16;102008.92;115877;1208;62726;-76
2021/04/24 00:47:33;;;;;;;9.33;3.70;;;;;;;2.54;73.50;102003.88;115793;1209;62259;-77
2021/04/24 00:49:59;;;;;;;7.27;2.80;;;;;;;2.51;73.57;102001.42;115803;1209;63061;-77
2021/04/24 00:52:27;;;;;;;7.40;2.75;;;;;;;2.49;73.74;102005.91;115832;1209;63227;-76
2021/04/24 00:54:53;;;;;;;10.53;3.77;;;;;;;2.47;73.51;101997.33;115813;1209;62357;-77
2021/04/24 00:57:21;;;;;;;5.60;3.10;;;;;;;2.44;73.98;101990.47;115803;1208;62628;-77
2021/04/24 00:59:48;;;;;;;8.23;2.83;;;;;;;2.40;74.12;101992.45;115792;1209;62160;-77
2021/04/24 01:02:15;;;;;;;6.97;2.30;;;;;;;2.37;74.44;102000.47;115762;1209;62394;-77
2021/04/24 01:04:42;;;;;;;11.15;3.80;;;;;;;2.37;73.83;101997.84;115811;1209;62751;-76
2021/04/24 01:07:09;;;;;;;7.53;2.67;;;;;;;2.36;73.63;102001.41;115751;1209;62248;-78
2021/04/24 01:09:36;;;;;;;10.17;3.30;;;;;;;2.34;75.14;101999.78;115819;1209;62709;-77
2021/04/24 01:12:03;;;;;;;10.50;3.23;;;;;;;2.32;74.39;102007.76;115725;1209;62203;-78
2021/04/24 01:14:30;;;;;;;6.85;2.90;;;;;;;2.30;74.71;102000.92;115760;1208;62625;-77
2021/04/24 01:16:57;;;;;;;9.53;3.23;;;;;;;2.27;74.57;102001.92;115752;1209;62518;-78
2021/04/24 01:19:25;;;;;;;11.67;4.13;;;;;;;2.26;74.92;102009.89;115823;1209;62365;-78
2021/04/24 01:22:02;;;;;;;9.47;3.80;;;;;;;2.22;75.09;102001.36;115823;1209;62354;-77
2021/04/24 01:24:30;;;;;;;9.47;3.00;;;;;;;2.20;75.93;102006.67;115804;1208;62410;-78
2021/04/24 01:26:57;;;;;;;14.73;3.50;;;;;;;2.18;74.99;102005.92;115788;1209;63311;-78
2021/04/24 01:29:24;;;;;;;5.93;3.33;;;;;;;2.18;75.66;102008.53;115817;1209;62678;-77
2021/04/24 01:31:51;;;;;;;12.53;3.20;;;;;;;2.17;76.04;102006.03;115824;1209;62155;-78
2021/04/24 01:34:18;;;;;;;9.85;3.55;;;;;;;2.17;75.67;102006.03;115821;1209;62353;-78
2021/04/24 01:36:44;;;;;;;8.53;3.30;;;;;;;2.15;76.37;101997.42;115787;1209;62388;-76
2021/04/24 01:39:11;;;;;;;8.63;3.30;;;;;;;2.14;76.04;102000.95;115787;1209;62305;-77
2021/04/24 01:41:37;;;;;;;12.40;4.10;;;;;;;2.11;76.35;102007.21;115782;1209;62594;-77
2021/04/24 01:44:04;;;;;;;10.63;3.77;;;;;;;2.09;75.96;102009.08;115748;1209;62825;-77
2021/04/24 01:46:31;;;;;;;9.87;3.80;;;;;;;2.06;76.24;102003.16;115778;1208;62324;-77
2021/04/24 01:48:58;;;;;;;9.90;3.45;;;;;;;2.07;76.44;102004.86;115771;1209;63200;-77
2021/04/24 01:51:25;;;;;;;12.27;3.93;;;;;;;2.06;76.40;102000.55;115789;1209;62320;-77
2021/04/24 01:53:53;;;;;;;10.00;3.33;;;;;;;2.06;76.85;102003.16;115792;1209;62364;-77
2021/04/24 01:56:49;;;;;;;11.13;3.97;;;;;;;2.06;76.40;102003.16;115826;1209;63204;-78
2021/04/24 01:59:19;;;;;;;9.70;3.37;;;;;;;2.04;76.89;102001.48;115789;1209;62195;-78
2021/04/24 02:01:48;;;;;;;9.80;3.50;;;;;;;2.04;77.38;101998.03;115821;1209;62356;-78
2021/04/24 02:04:20;;;;;;;8.23;2.83;;;;;;;2.03;77.57;101999.78;115860;1208;63128;-77
2021/04/24 02:06:47;;;;;;;9.83;3.00;;;;;;;2.03;77.47;101994.55;115737;1209;62430;-78
2021/04/24 02:09:16;;;;;;;14.73;5.40;;;;;;;2.05;77.78;101991.86;115816;1209;62400;-78
2021/04/24 02:12:09;;;;;;;10.83;4.27;;;;;;;2.09;77.40;101985.52;115760;1209;62180;-78
2021/04/24 02:14:48;;;;;;;10.77;3.80;;;;;;;2.13;77.30;101983.58;115834;1209;62405;-78
2021/04/24 02:17:26;;;;;;;9.50;3.45;;;;;;;2.17;77.25;101974.61;115826;1209;62302;-78
2021/04/24 02:19:54;;;;;;;8.23;4.07;;;;;;;2.20;77.56;101969.19;115799;1209;62367;-77
2021/04/24 02:22:22;;;;;;;16.80;4.40;;;;;;;2.23;77.74;101971.61;115830;1209;62398;-75
2021/04/24 02:24:53;;;;;;;11.25;4.20;;;;;;;2.24;77.94;101970.70;115810;1209;62283;-76
2021/04/24 02:27:20;;;;;;;9.23;3.67;;;;;;;2.26;77.77;101978.47;115821;1209;62578;-76
2021/04/24 02:29:48;;;;;;;8.97;3.60;;;;;;;2.27;78.02;101969.67;115779;1209;62525;-75
2021/04/24 02:32:16;;;;;;;10.80;4.47;;;;;;;2.33;78.11;101982.41;115838;1209;62419;-76
2021/04/24 02:34:44;;;;;;;11.03;3.57;;;;;;;2.37;77.98;101979.52;115759;1209;62534;-77
2021/04/24 02:37:13;;;;;;;12.77;4.30;;;;;;;2.42;78.22;101980.11;115817;1209;62381;-77
2021/04/24 02:39:42;;;;;;;12.50;3.90;;;;;;;2.47;78.46;101976.38;115809;1209;61863;-77
2021/04/24 02:42:15;;;;;;;6.90;3.07;;;;;;;2.51;78.54;101981.34;115825;1209;62410;-77
2021/04/24 02:44:41;;;;;;;9.23;3.60;;;;;;;2.58;79.27;101985.27;115799;1209;62275;-77
2021/04/24 02:47:10;;;;;;;9.90;3.00;;;;;;;2.64;79.33;101979.66;115801;1209;62833;-77
2021/04/24 02:49:36;;;;;;;6.60;2.60;;;;;;;2.70;79.35;101977.59;115782;1209;62610;-77
2021/04/24 02:52:04;;;;;;;9.40;3.50;;;;;;;2.77;79.30;101979.77;115798;1209;63672;-77
2021/04/24 02:54:32;;;;;;;9.40;3.97;;;;;;;2.85;79.50;101981.94;115821;1209;62986;-77
2021/04/24 02:56:59;;;;;;;17.03;4.73;;;;;;;2.93;79.14;101978.83;115969;1209;62070;-77
2021/04/24 02:59:26;;;;;;;12.67;4.97;;;;;;;2.99;79.23;101983.70;115840;1209;62294;-77
2021/04/24 03:01:54;;;;;;;11.35;3.90;;;;;;;3.04;78.92;101982.49;115848;1209;62604;-77
2021/04/24 03:04:20;;;;;;;11.77;3.47;;;;;;;3.11;78.70;101976.88;115746;1209;62518;-77
2021/04/24 03:06:47;;;;;;;7.70;3.13;;;;;;;3.14;78.75;101981.91;115892;1208;64299;-77
2021/04/24 03:09:14;;;;;;;9.70;3.60;;;;;;;3.18;78.79;101981.63;115810;1209;62345;-77
2021/04/24 03:11:41;;;;;;;8.93;4.57;;;;;;;3.24;78.56;101985.66;115799;1209;62247;-76
2021/04/24 03:14:08;;;;;;;9.45;3.50;;;;;;;3.29;78.57;101986.20;115813;1209;63286;-77
2021/04/24 03:16:36;;;;;;;10.53;3.77;;;;;;;3.34;78.88;101976.28;115812;1208;62411;-77
2021/04/24 03:19:04;;;;;;;8.00;3.90;;;;;;;3.38;78.36;101979.53;115791;1209;62433;-77
2021/04/24 03:21:30;;;;;;;5.97;2.70;;;;;;;3.41;78.17;101979.36;115801;1209;63177;-77
2021/04/24 03:23:57;;;;;;;12.63;3.60;;;;;;;3.44;77.97;101976.52;115791;1209;62697;-77
2021/04/24 03:26:24;;;;;;;7.10;3.40;;;;;;;3.47;78.28;101989.47;115855;1209;62813;-77
2021/04/24 03:28:52;;;;;;;10.37;4.67;;;;;;;3.48;78.56;101983.27;115794;1209;62236;-77
2021/04/24 03:31:19;;;;;;;4.73;2.33;;;;;;;3.49;78.73;101981.51;115811;1209;62921;-77
2021/04/24 03:33:46;;;;;;;11.00;3.50;;;;;;;3.51;78.41;101983.09;115821;1208;62232;-77
2021/04/24 03:36:14;;;;;;;7.03;3.93;;;;;;;3.54;78.44;101993.38;115844;1209;62293;-77
2021/04/24 03:38:41;;;;;;;12.90;4.70;;;;;;;3.57;78.24;101985.33;115790;1209;62384;-77
2021/04/24 03:41:08;;;;;;;8.27;3.03;;;;;;;3.58;79.13;101986.16;115844;1209;62273;-77
2021/04/24 03:43:36;;;;;;;9.43;3.60;;;;;;;3.60;79.14;101987.74;115797;1209;62885;-77
2021/04/24 03:46:03;;;;;;;8.67;3.63;;;;;;;3.61;79.31;101992.06;115812;1208;62810;-76
2021/04/24 03:48:30;;;;;;;11.37;4.10;;;;;;;3.62;80.08;101995.52;115812;1209;62390;-78
2021/04/24 03:50:57;;;;;;;12.07;4.27;;;;;;;3.65;79.77;101985.66;115796;1209;61923;-77
2021/04/24 03:53:24;;;;;;;9.43;3.47;;;;;;;3.70;79.45;101982.76;115831;1209;62294;-78
2021/04/24 03:55:51;;;;;;;7.70;3.27;;;;;;;3.73;79.58;101994.84;115803;1208;62617;-77
2021/04/24 03:58:18;;;;;;;10.25;3.25;;;;;;;3.73;79.95;101998.30;115849;1209;62272;-77
2021/04/24 04:00:45;;;;;;;11.23;4.37;;;;;;;3.77;79.32;101991.08;115826;1209;62161;-78
2021/04/24 04:03:12;;;;;;;9.33;4.80;;;;;;;3.78;79.71;101992.74;115841;1208;62830;-77
2021/04/24 04:05:42;;;;;;;7.37;2.60;;;;;;;3.79;79.93;101994.45;115771;1209;62465;-76
2021/04/24 04:08:11;;;;;;;17.80;5.43;;;;;;;3.80;79.81;101993.48;115796;1209;63032;-77
2021/04/24 04:10:40;;;;;;;10.70;4.75;;;;;;;3.81;79.67;101996.02;115802;1209;63366;-77
2021/04/24 04:13:08;;;;;;;9.60;3.95;;;;;;;3.80;79.84;102001.36;115776;1208;62363;-77
2021/04/24 04:15:34;;;;;;;13.57;5.40;;;;;;;3.78;79.66;101995.37;115822;1209;62413;-76
2021/04/24 04:18:16;;;;;;;10.77;4.77;;;;;;;3.75;79.70;101992.95;115778;1209;62202;-76
2021/04/24 04:20:46;;;;;;;12.60;4.17;;;;;;;3.71;80.09;101996.72;115794;1209;63010;-77
2021/04/24 04:23:25;;;;;;;8.17;3.07;;;;;;;3.65;80.49;102004.02;115828;1209;62370;-77
2021/04/24 04:25:52;;;;;;;18.10;6.73;;;;;;;3.61;80.69;102005.19;115833;1209;62456;-76
2021/04/24 04:28:19;;;;;;;12.60;4.67;;;;;;;3.57;80.72;102001.07;115824;1209;62274;-76
2021/04/24 04:30:51;;;;;;;14.33;5.70;;;;;;;3.54;81.14;102001.25;115815;1208;62167;-78
2021/04/24 04:33:18;;;;;;;12.20;4.83;;;;;;;3.51;80.72;102001.45;115812;1209;63457;-78
2021/04/24 04:35:46;;;;;;;8.07;3.70;;;;;;;3.47;81.30;102003.42;115790;1209;62607;-77
2021/04/24 04:38:12;;;;;;;9.13;4.07;;;;;;;3.46;81.21;102004.38;115810;1209;62273;-77
2021/04/24 04:40:40;;;;;;;8.93;3.77;;;;;;;3.44;81.37;101997.52;115834;1209;62633;-78
2021/04/24 04:43:07;;;;;;;9.10;4.35;;;;;;;3.44;81.60;102005.38;115856;1209;62336;-77
2021/04/24 04:45:34;;;;;;;17.40;5.30;;;;;;;3.46;81.88;102003.50;115839;1209;62830;-79
2021/04/24 04:48:01;;;;;;;14.37;5.13;;;;;;;3.50;81.08;102004.16;115811;1208;62626;-77
2021/04/24 04:50:31;;;;;;;8.33;2.90;;;;;;;3.50;81.49;101994.50;115816;1208;62569;-76
2021/04/24 04:52:58;;;;;;;14.63;4.73;;;;;;;3.52;81.59;101999.66;115840;1208;62925;-78
2021/04/24 04:55:25;;;;;;;11.70;3.85;;;;;;;3.53;82.11;101994.33;115851;1209;62445;-77
2021/04/24 04:57:52;;;;;;;13.30;4.83;;;;;;;3.55;81.71;101992.45;115828;1209;62275;-79
2021/04/24 05:00:23;;;;;;;12.55;5.40;;;;;;;3.60;82.24;101994.78;115816;1208;62248;-78
2021/04/24 05:02:51;;;;;;;7.17;2.73;;;;;;;3.65;81.92;101997.94;115890;1207;62179;-77
2021/04/24 05:05:18;;;;;;;15.87;4.87;;;;;;;3.72;81.45;101999.25;115818;1209;61935;-76
2021/04/24 05:07:49;;;;;;;12.23;3.77;;;;;;;3.76;82.04;101984.99;115814;1209;62187;-76
2021/04/24 05:10:25;;;;;;;11.20;4.33;;;;;;;3.83;81.08;101988.06;115876;1209;62373;-78
2021/04/24 05:12:53;;;;;;;10.30;4.40;;;;;;;3.90;81.00;101991.95;115794;1209;62233;-78
2021/04/24 05:15:20;;;;;;;8.97;4.13;;;;;;;3.94;81.17;101996.07;115815;1209;63411;-78
2021/04/24 05:17:47;;;;;;;14.10;4.50;;;;;;;4.04;81.17;101997.16;115844;1209;62281;-77
2021/04/24 05:20:15;;;;;;;16.55;4.40;;;;;;;4.16;80.62;101992.87;115785;1209;62442;-79
2021/04/24 05:22:46;;;;;;;13.10;4.57;;;;;;;4.26;80.71;101990.48;115788;1209;62220;-78
2021/04/24 05:25:14;;;;;;;12.20;4.07;;;;;;;4.30;80.08;101999.85;115839;1209;62276;-77
2021/04/24 05:27:44;;;;;;;7.00;3.23;;;;;;;4.34;79.60;101995.25;115769;1209;62231;-78
2021/04/24 05:30:13;;;;;;;10.00;4.50;;;;;;;4.41;79.99;101994.72;115814;1209;62452;-77
2021/04/24 05:32:39;;;;;;;11.55;4.75;;;;;;;4.53;78.89;101994.83;115776;1209;62713;-78
2021/04/24 05:35:08;;;;;;;9.63;3.53;;;;;;;4.65;78.97;101983.48;115789;1209;63388;-75
2021/04/24 05:37:34;;;;;;;7.27;3.73;;;;;;;4.76;79.04;101998.52;115787;1209;62409;-76
2021/04/24 05:40:02;;;;;;;12.65;3.45;;;;;;;4.82;79.00;101984.96;115795;1209;62509;-75
2021/04/24 05:42:31;;;;;;;16.90;4.70;;;;;;;4.87;78.02;101994.23;115817;1209;62625;-74
2021/04/24 05:44:58;;;;;;;14.60;4.70;;;;;;;4.96;78.02;101997.17;115847;1209;62350;-75
2021/04/24 05:47:26;;;;;;;15.57;4.50;;;;;;;5.02;77.86;101987.06;115827;1209;62969;-74
2021/04/24 05:49:53;;;;;;;10.53;4.17;;;;;;;5.10;77.60;101989.17;115771;1209;64203;-74
2021/04/24 05:52:20;;;;;;;7.70;2.90;;;;;;;5.21;76.35;101994.51;115781;1209;61940;-75
2021/04/24 05:54:47;;;;;;;8.17;4.17;;;;;;;5.26;76.06;101989.75;115773;1209;62950;-75
2021/04/24 05:57:14;;;;;;;8.30;2.63;;;;;;;5.36;75.67;102004.91;115777;1209;62470;-75
2021/04/24 05:59:40;;;;;;;6.37;2.57;;;;;;;5.47;75.64;101989.19;115723;1209;62284;-75
2021/04/24 06:02:08;;;;;;;9.00;3.03;;;;;;;5.58;75.16;101988.41;115681;1209;63997;-75
2021/04/24 06:04:35;;;;;;;9.13;3.80;;;;;;;5.62;74.89;101993.34;115772;1209;63019;-75
2021/04/24 06:07:02;;;;;;;8.47;2.80;;;;;;;5.71;74.40;101992.66;115740;1209;62621;-75
2021/04/24 06:09:29;;;;;;;9.53;3.53;;;;;;;5.81;74.19;101989.39;115748;1209;62271;-75
2021/04/24 06:11:56;;;;;;;12.00;4.00;;;;;;;5.86;73.58;101988.08;115780;1209;62379;-75
2021/04/24 06:14:22;;;;;;;9.10;3.47;;;;;;;5.92;73.86;101989.43;115796;1209;62358;-75
2021/04/24 06:16:49;;;;;;;6.05;3.15;;;;;;;5.94;73.59;101987.52;115696;1209;63441;-76
2021/04/24 06:19:15;;;;;;;12.33;4.00;;;;;;;5.99;73.65;101987.21;115849;1209;62285;-75
2021/04/24 06:21:42;;;;;;;9.10;3.00;;;;;;;6.00;73.16;101989.74;115762;1209;62530;-75
2021/04/24 06:24:09;;;;;;;6.40;2.60;;;;;;;6.08;72.95;101997.92;115829;1209;62339;-75
2021/04/24 06:26:35;;;;;;;10.40;2.60;;;;;;;6.20;72.69;101995.32;115812;1209;62556;-75
2021/04/24 06:29:02;;;;;;;12.33;3.83;;;;;;;6.27;72.31;101986.02;115839;1209;62330;-76
2021/04/24 06:31:29;;;;;;;7.27;2.07;;;;;;;6.33;71.68;101991.67;115747;1209;62452;-75
2021/04/24 06:33:55;;;;;;;10.83;4.17;;;;;;;6.37;71.85;101984.35;115796;1209;62149;-75
2021/04/24 06:36:25;;;;;;;22.40;4.20;;;;;;;6.40;71.25;101991.21;115867;1209;63970;-75
2021/04/24 06:38:52;;;;;;;5.77;3.03;;;;;;;6.37;71.38;101989.63;115838;1209;62497;-75
2021/04/24 06:41:18;;;;;;;7.50;3.17;;;;;;;6.44;71.67;101985.59;115826;1209;62346;-79
2021/04/24 06:43:45;;;;;;;4.63;2.40;;;;;;;6.52;71.27;101990.26;115775;1209;62576;-80
2021/04/24 06:46:12;;;;;;;6.77;3.30;;;;;;;6.55;70.73;101990.05;115877;1209;62334;-79
2021/04/24 06:48:39;;;;;;;8.53;3.40;;;;;;;6.62;71.14;101982.50;115801;1209;62521;-80
2021/04/24 06:51:05;;;;;;;7.23;3.70;;;;;;;6.67;70.56;101982.98;115843;1209;63743;-79
2021/04/24 06:53:32;;;;;;;7.83;3.43;;;;;;;6.80;69.97;101983.73;115841;1209;62345;-79
2021/04/24 06:55:58;;;;;;;4.73;2.13;;;;;;;6.94;69.39;101978.20;115860;1209;62283;-80
2021/04/24 06:58:25;;;;;;;4.23;1.83;;;;;;;7.14;68.73;101981.94;115848;1207;62229;-80
2021/04/24 07:00:55;;;;;;;7.10;2.67;;;;;;;7.32;67.35;101987.55;115804;1209;62938;-78
2021/04/24 07:03:23;;;;;;;9.05;2.70;;;;;;;7.40;66.18;101983.48;115781;1209;62300;-75
2021/04/24 07:05:50;;;;;;;5.40;2.30;;;;;;;7.46;66.98;102002.30;115792;1209;62944;-80
2021/04/24 07:08:17;;;;;;;7.50;1.90;;;;;;;7.47;65.18;101992.58;115759;1209;62979;-80
2021/04/24 07:10:43;;;;;;;4.53;2.07;;;;;;;7.45;65.37;101990.05;115785;1209;62179;-80
2021/04/24 07:13:10;;;;;;;4.15;2.10;;;;;;;7.49;65.80;101994.13;115789;1209;62284;-79
2021/04/24 07:15:37;;;;;;;11.40;2.80;;;;;;;7.51;65.62;101999.29;115805;1209;62688;-80
2021/04/24 07:18:07;;;;;;;3.37;1.73;;;;;;;7.49;64.67;101994.13;115760;1209;62432;-79
2021/04/24 07:20:34;;;;;;;5.47;1.87;;;;;;;7.47;64.26;101995.22;115766;1209;62377;-79
2021/04/24 07:23:01;;;;;;;5.63;1.97;;;;;;;7.49;65.33;101998.57;115828;1209;62296;-79
2021/04/24 07:25:27;;;;;;;5.60;1.30;;;;;;;7.54;65.82;101996.39;115777;1209;62495;-80
2021/04/24 07:27:54;;;;;;;3.35;1.50;;;;;;;7.52;65.49;101996.53;115781;1209;62203;-80
2021/04/24 07:30:21;;;;;;;4.97;1.60;;;;;;;7.51;64.15;101999.29;115781;1209;62572;-79
2021/04/24 07:32:48;;;;;;;3.67;1.57;;;;;;;7.54;64.23;101994.61;115764;1209;62630;-79
2021/04/24 07:35:15;;;;;;;5.17;1.77;;;;;;;7.62;64.74;101986.05;115775;1209;62234;-80
2021/04/24 07:37:42;;;;;;;6.00;2.80;;;;;;;7.70;64.13;101988.92;115764;1209;62426;-79
2021/04/24 07:40:11;;;;;;;3.33;1.43;;;;;;;7.81;63.59;101989.85;115765;1209;63555;-80
2021/04/24 07:42:38;;;;;;;6.90;2.07;;;;;;;7.87;62.89;101994.64;115768;1209;62701;-80
2021/04/24 07:45:06;;;;;;;5.60;2.70;;;;;;;7.83;61.79;101993.21;115800;1209;62914;-79
2021/04/24 07:47:32;;;;;;;11.10;3.30;;;;;;;7.86;62.54;101985.02;115771;1209;62394;-80
2021/04/24 07:49:59;;;;;;;5.23;1.80;;;;;;;7.88;62.27;101997.13;115760;1209;62207;-77
2021/04/24 07:52:26;;;;;;;4.63;1.80;;;;;;;7.88;60.96;101993.66;115810;1209;62197;-79
2021/04/24 07:54:53;;;;;;;9.47;2.50;;;;;;;7.89;60.92;101998.00;115745;1209;62446;-79
2021/04/24 07:57:19;;;;;;;5.00;1.40;;;;;;;7.82;60.15;101995.02;115724;1209;63449;-79
2021/04/24 07:59:46;;;;;;;5.23;1.93;;;;;;;7.79;59.68;101991.78;115819;1209;62194;-79
2021/04/24 08:02:13;;;;;;;4.73;2.00;;;;;;;7.85;60.72;101991.28;115787;1209;62547;-79
2021/04/24 08:04:41;;;;;;;5.17;1.47;;;;;;;7.86;59.56;101992.95;115497;1209;62556;-79
2021/04/24 08:07:09;;;;;;;3.73;1.47;;;;;;;7.92;59.36;101997.73;115675;1209;62359;-78
2021/04/24 08:09:37;;;;;;;2.70;1.33;;;;;;;8.01;59.06;102002.28;115845;1209;62647;-80
2021/04/24 08:12:04;;;;;;;5.27;2.00;;;;;;;8.06;57.90;102000.09;115787;1209;63035;-79
2021/04/24 08:14:31;;;;;;;7.70;1.77;;;;;;;8.16;57.68;101993.08;115828;1209;63322;-79
2021/04/24 08:17:00;;;;;;;7.67;2.47;;;;;;;8.19;57.25;101999.91;115791;1209;64663;-79
2021/04/24 08:19:44;;;;;;;3.23;1.50;;;;;;;8.19;56.56;101991.16;115155;1209;64339;-80
2021/04/24 08:22:11;;;;;;;5.50;1.73;;;;;;;8.22;56.99;101993.53;115620;1209;62535;-79
2021/04/24 08:24:38;;;;;;;4.97;1.70;;;;;;;8.27;57.86;101986.07;115852;1209;62227;-79
2021/04/24 08:27:06;;;;;;;3.30;1.70;;;;;;;8.27;57.18;101991.36;115854;1209;62300;-80
2021/04/24 08:29:33;;;;;;;5.53;2.10;;;;;;;8.36;57.99;101990.58;115805;1209;62414;-79
2021/04/24 08:32:02;;;;;;;4.00;1.70;;;;;;;8.39;57.99;101987.66;115798;1209;62546;-79
2021/04/24 08:34:29;;;;;;;6.13;2.23;;;;;;;8.43;57.97;101991.77;115829;1209;63361;-79
2021/04/24 08:36:57;;;;;;;5.23;1.50;;;;;;;8.60;57.41;101986.86;115847;1209;63074;-79
2021/04/24 08:39:24;;;;;;;2.50;1.40;;;;;;;8.75;57.38;101991.67;115876;1209;62198;-79
2021/04/24 08:41:51;;;;;;;5.20;2.15;;;;;;;8.87;56.57;101989.80;115695;1209;63104;-79
2021/04/24 08:44:18;;;;;;;3.67;1.70;;;;;;;8.89;56.35;101987.86;115836;1208;62132;-79
2021/04/24 08:46:50;;;;;;;4.95;1.80;;;;;;;8.95;56.31;101992.63;115823;1209;62360;-79
2021/04/24 08:49:19;;;;;;;6.75;2.35;;;;;;;9.09;56.31;101987.94;115729;1209;62344;-76
2021/04/24 08:51:46;;;;;;;6.17;2.57;;;;;;;9.27;54.84;101983.69;115694;1209;62415;-77
2021/04/24 08:54:13;;;;;;;5.20;1.80;;;;;;;9.50;53.95;101981.66;115823;1209;62512;-77
2021/04/24 08:56:40;;;;;;;5.77;2.83;;;;;;;9.76;53.09;101976.67;115810;1209;62793;-78
2021/04/24 08:59:06;;;;;;;5.67;2.37;;;;;;;9.95;52.37;101985.63;115791;1207;63015;-77
2021/04/24 09:01:38;;;;;;;7.90;2.70;;;;;;;9.89;51.13;101983.53;115645;1209;62747;-77
2021/04/24 09:04:05;;;;;;;4.83;1.67;;;;;;;9.78;51.36;101980.03;115849;1209;62973;-80
2021/04/24 09:06:33;;;;;;;6.73;2.50;;;;;;;9.60;53.37;101992.27;115733;1209;63394;-79
2021/04/24 09:09:06;;;;;;;4.10;1.83;;;;;;;9.41;53.85;101989.58;115739;1209;62242;-81
2021/04/24 09:11:46;;;;;;;3.97;2.13;;;;;;;9.38;53.14;101988.88;115810;1209;62352;-79
2021/04/24 09:14:15;;;;;;;4.90;2.50;;;;;;;9.36;53.34;101985.52;115872;1209;62629;-81
2021/04/24 09:16:44;;;;;;;3.63;2.10;;;;;;;9.50;53.97;101984.31;115851;1209;64184;-82
2021/04/24 09:19:31;;;;;;;6.20;1.63;;;;;;;9.66;52.14;101991.72;115808;1209;62167;-80
2021/04/24 09:22:22;;;;;;;8.30;2.77;;;;;;;9.89;51.92;101991.48;115815;1209;62654;-82
2021/04/24 09:24:55;;;;;;;5.60;1.85;;;;;;;9.80;49.56;101983.38;115848;1209;62479;-80
2021/04/24 09:27:42;;;;;;;4.33;1.50;;;;;;;9.78;49.42;101985.33;115801;1209;62480;-79
2021/04/24 09:30:18;;;;;;;5.83;2.37;;;;;;;9.93;50.00;101987.58;115786;1209;62278;-79
2021/04/24 09:32:47;;;;;;;4.97;2.03;;;;;;;10.07;49.52;101987.14;115778;1209;62506;-78
2021/04/24 09:35:20;;;;;;;4.63;1.87;;;;;;;10.07;47.99;101984.48;115779;1209;62670;-78
2021/04/24 09:37:59;;;;;;;8.13;1.93;;;;;;;10.35;47.18;101982.02;115816;1209;62631;-78
2021/04/24 09:40:27;;;;;;;3.97;1.90;;;;;;;10.73;45.10;101980.23;115842;1209;62719;-78
2021/04/24 09:43:02;;;;;;;3.73;1.63;;;;;;;11.26;46.98;101971.63;115828;1209;62240;-80
2021/04/24 09:45:41;;;;;;;5.10;1.50;;;;;;;11.64;45.17;101977.69;115805;1209;62330;-80
2021/04/24 09:48:26;;;;;;;3.57;1.53;;;;;;;11.75;44.70;101982.81;115809;1209;62414;-80
2021/04/24 09:50:53;;;;;;;4.20;2.20;;;;;;;11.61;45.03;101978.84;115824;1209;62705;-80
2021/04/24 09:53:25;;;;;;;4.10;2.30;;;;;;;11.41;46.01;101974.61;115773;1209;62530;-80
2021/04/24 09:55:54;;;;;;;5.63;2.30;;;;;;;11.16;44.73;101970.86;115796;1209;62874;-81
2021/04/24 09:58:34;;;;;;;3.87;2.07;;;;;;;10.92;45.88;101974.88;115854;1209;62466;-79
2021/04/24 10:01:22;;;;;;;7.50;2.30;;;;;;;11.05;46.48;101963.06;115817;1209;62124;-80
2021/04/24 10:03:51;;;;;;;3.47;2.03;;;;;;;11.34;44.14;101971.72;115823;1209;62263;-79
2021/04/24 10:06:30;;;;;;;5.17;2.10;;;;;;;11.55;43.68;101973.29;115835;1209;62394;-80
2021/04/24 10:09:13;;;;;;;4.80;2.30;;;;;;;11.87;44.90;101963.97;115709;1209;62250;-79
2021/04/24 10:11:43;;;;;;;6.40;2.73;;;;;;;12.10;43.94;101965.20;115783;1209;64037;-78
2021/04/24 10:14:10;;;;;;;4.13;2.33;;;;;;;12.11;41.57;101960.70;115795;1209;62131;-76
2021/04/24 10:16:43;;;;;;;5.50;2.50;;;;;;;12.00;42.21;101954.63;115821;1209;62669;-77
2021/04/24 10:19:16;;;;;;;9.10;4.15;;;;;;;12.09;40.47;101955.56;115800;1209;62219;-77
2021/04/24 10:21:43;;;;;;;4.23;1.83;;;;;;;12.34;41.69;101953.89;115808;1209;62212;-77
2021/04/24 10:24:13;;;;;;;4.27;2.20;;;;;;;12.59;40.86;101959.39;115771;1209;62474;-77
2021/04/24 10:26:43;;;;;;;5.53;2.60;;;;;;;12.22;42.11;101971.95;115791;1209;62180;-78
2021/04/24 10:29:10;;;;;;;7.90;3.00;;;;;;;11.93;42.87;101968.70;115863;1209;62318;-78
2021/04/24 10:31:38;;;;;;;9.67;2.30;;;;;;;11.63;44.46;101965.41;115800;1209;62291;-76
2021/04/24 10:34:07;;;;;;;9.00;3.10;;;;;;;11.45;45.59;101967.19;115760;1209;63308;-77
2021/04/24 10:36:35;;;;;;;5.73;2.03;;;;;;;11.29;45.22;101971.34;115807;1209;63338;-79
2021/04/24 10:39:17;;;;;;;5.90;2.10;;;;;;;11.15;45.12;101963.86;115880;1209;62461;-78
2021/04/24 10:41:49;;;;;;;6.90;3.50;;;;;;;11.16;44.54;101955.75;115749;1209;62326;-78
2021/04/24 10:44:17;;;;;;;3.33;2.00;;;;;;;11.43;43.77;101960.22;115809;1209;62265;-79
2021/04/24 10:46:56;;;;;;;7.43;3.10;;;;;;;11.90;43.34;101953.91;115823;1209;63828;-79
2021/04/24 10:49:30;;;;;;;6.70;3.40;;;;;;;12.41;40.51;101936.33;115784;1209;62282;-79
2021/04/24 10:52:05;;;;;;;6.30;3.25;;;;;;;12.67;39.70;101934.66;115820;1209;62118;-78
2021/04/24 10:54:39;;;;;;;10.90;4.63;;;;;;;12.76;38.96;101928.37;115832;1209;62238;-79
2021/04/24 10:57:38;;;;;;;4.55;1.85;;;;;;;12.83;38.93;101937.38;115800;1209;62752;-78
2021/04/24 11:00:07;;;;;;;4.30;1.87;;;;;;;12.75;39.12;101924.88;115837;1209;63117;-78
2021/04/24 11:02:40;;;;;;;4.60;1.60;;;;;;;12.60;38.85;101934.42;115842;1209;62320;-77
2021/04/24 11:05:31;;;;;;;3.97;1.47;;;;;;;12.65;39.14;101921.50;115833;1209;62406;-79
2021/04/24 11:08:24;;;;;;;3.93;1.30;;;;;;;12.95;38.76;101912.14;115792;1208;62778;-78
2021/04/24 11:11:01;;;;;;;4.00;1.37;;;;;;;13.18;36.70;101922.22;115823;1208;62720;-79
2021/04/24 11:13:31;;;;;;;5.37;2.73;;;;;;;13.13;38.70;101924.52;115834;1209;64677;-79
2021/04/24 11:15:59;;;;;;;5.23;2.13;;;;;;;12.97;39.66;101923.47;115833;1209;62549;-79
2021/04/24 11:18:27;;;;;;;4.10;2.13;;;;;;;12.84;39.26;101921.25;115771;1208;62551;-79
2021/04/24 11:21:01;;;;;;;2.80;1.20;;;;;;;12.70;39.31;101918.35;115814;1209;63092;-79
2021/04/24 11:23:35;;;;;;;6.75;2.00;;;;;;;12.69;38.93;101914.00;115758;1209;62270;-79
2021/04/24 11:26:06;;;;;;;3.63;1.97;;;;;;;13.10;38.71;101916.86;115833;1209;63623;-79
2021/04/24 11:28:34;;;;;;;3.30;1.75;;;;;;;13.45;37.18;101913.98;115786;1209;62601;-79
2021/04/24 11:31:06;;;;;;;5.73;1.50;;;;;;;13.55;36.71;101904.99;115792;1209;62879;-79